createdAt,value
2019-01-13T00:01:18.333Z,2.23
2019-01-13T00:03:45.301Z,2.20
2019-01-13T00:06:12.281Z,2.10
2019-01-13T00:08:39.041Z,1.73
2019-01-13T00:11:06.030Z,1.80
2019-01-13T00:13:32.918Z,2.00
2019-01-13T00:15:59.795Z,1.80
2019-01-13T00:18:26.960Z,2.00
2019-01-13T00:20:54.330Z,2.10
2019-01-13T00:23:21.246Z,1.90
2019-01-13T00:25:48.606Z,1.60
2019-01-13T00:28:15.420Z,1.77
2019-01-13T00:30:42.181Z,1.80
2019-01-13T00:33:08.985Z,1.70
2019-01-13T00:35:36.198Z,1.63
2019-01-13T00:38:03.226Z,2.00
2019-01-13T00:40:30.384Z,1.80
2019-01-13T00:42:57.230Z,1.83
2019-01-13T00:45:24.029Z,2.00
2019-01-13T00:47:50.893Z,2.10
2019-01-13T00:50:18.118Z,2.30
2019-01-13T00:52:45.357Z,2.10
2019-01-13T00:55:12.689Z,1.90
2019-01-13T00:57:39.544Z,2.07
2019-01-13T01:00:10.001Z,2.17
2019-01-13T01:02:36.942Z,1.60
2019-01-13T01:05:04.989Z,1.77
2019-01-13T01:07:32.192Z,1.90
2019-01-13T01:09:59.421Z,1.80
2019-01-13T01:12:26.533Z,2.20
2019-01-13T01:14:53.518Z,1.70
2019-01-13T01:17:20.631Z,2.07
2019-01-13T01:19:48.096Z,1.63
2019-01-13T01:22:14.855Z,1.80
2019-01-13T01:24:41.977Z,1.93
2019-01-13T01:27:08.928Z,1.90
2019-01-13T01:29:35.716Z,1.77
2019-01-13T01:32:04.951Z,1.70
2019-01-13T01:34:31.722Z,1.80
2019-01-13T01:36:58.509Z,1.80
2019-01-13T01:39:25.277Z,1.80
2019-01-13T01:41:52.348Z,1.93
2019-01-13T01:44:19.455Z,1.80
2019-01-13T01:46:46.618Z,2.00
2019-01-13T01:49:13.381Z,2.20
2019-01-13T01:51:40.258Z,2.00
2019-01-13T01:54:07.233Z,2.00
2019-01-13T01:56:34.011Z,1.73
2019-01-13T01:59:01.037Z,2.10
2019-01-13T02:01:28.067Z,2.20
2019-01-13T02:03:54.954Z,2.17
2019-01-13T02:06:22.170Z,2.10
2019-01-13T02:08:48.977Z,2.50
2019-01-13T02:11:15.849Z,2.47
2019-01-13T02:13:42.715Z,2.50
2019-01-13T02:16:10.084Z,2.60
2019-01-13T02:18:36.974Z,2.53
2019-01-13T02:21:03.941Z,3.00
2019-01-13T02:23:31.070Z,2.90
2019-01-13T02:25:58.118Z,2.97
2019-01-13T02:28:25.084Z,2.87
2019-01-13T02:30:51.946Z,2.97
2019-01-13T02:33:19.044Z,3.07
2019-01-13T02:35:46.322Z,3.00
2019-01-13T02:38:13.070Z,3.57
2019-01-13T02:40:40.086Z,3.13
2019-01-13T02:43:07.249Z,3.37
2019-01-13T02:45:34.002Z,3.50
2019-01-13T02:48:00.754Z,3.63
2019-01-13T02:50:27.503Z,3.90
2019-01-13T02:52:54.798Z,3.93
2019-01-13T02:55:21.581Z,4.43
2019-01-13T02:57:48.560Z,3.80
2019-01-13T03:00:17.632Z,4.13
2019-01-13T03:02:44.530Z,3.83
2019-01-13T03:05:11.933Z,3.93
2019-01-13T03:07:39.127Z,4.17
2019-01-13T03:10:10.227Z,4.10
2019-01-13T03:12:37.337Z,4.00
2019-01-13T03:15:05.051Z,3.83
2019-01-13T03:17:32.173Z,3.87
2019-01-13T03:19:59.027Z,3.70
2019-01-13T03:22:25.797Z,3.83
2019-01-13T03:24:52.578Z,3.30
2019-01-13T03:27:19.466Z,3.63
2019-01-13T03:29:46.296Z,3.27
2019-01-13T03:32:13.470Z,3.60
2019-01-13T03:34:40.330Z,3.10
2019-01-13T03:37:07.349Z,2.93
2019-01-13T03:39:34.145Z,3.00
2019-01-13T03:42:01.357Z,3.13
2019-01-13T03:44:28.236Z,3.20
2019-01-13T03:46:54.996Z,3.30
2019-01-13T03:49:21.908Z,3.23
2019-01-13T03:51:48.789Z,3.70
2019-01-13T03:54:15.540Z,3.80
2019-01-13T03:56:42.386Z,3.23
2019-01-13T03:59:09.252Z,3.60
2019-01-13T04:01:35.999Z,3.50
2019-01-13T04:04:03.278Z,3.87
2019-01-13T04:06:30.040Z,3.87
2019-01-13T04:08:56.808Z,3.77
2019-01-13T04:11:23.611Z,3.83
2019-01-13T04:13:50.486Z,4.23
2019-01-13T04:16:18.092Z,4.07
2019-01-13T04:18:44.840Z,4.67
2019-01-13T04:21:11.844Z,4.63
2019-01-13T04:23:38.817Z,4.63
2019-01-13T04:26:05.680Z,4.80
2019-01-13T04:28:32.420Z,4.77
2019-01-13T04:30:59.269Z,5.00
2019-01-13T04:33:26.393Z,5.10
2019-01-13T04:35:53.238Z,5.50
2019-01-13T04:38:19.989Z,5.27
2019-01-13T04:40:46.849Z,5.37
2019-01-13T04:43:13.696Z,5.53
2019-01-13T04:45:40.632Z,5.53
2019-01-13T04:48:07.380Z,5.43
2019-01-13T04:50:34.152Z,5.80
2019-01-13T04:53:01.216Z,5.43
2019-01-13T04:55:28.121Z,5.47
2019-01-13T04:57:54.889Z,5.47
2019-01-13T05:00:21.874Z,5.30
2019-01-13T05:02:48.620Z,5.23
2019-01-13T05:05:15.502Z,5.07
2019-01-13T05:07:42.466Z,4.80
2019-01-13T05:10:12.385Z,5.00
2019-01-13T05:12:39.280Z,4.90
2019-01-13T05:15:06.500Z,4.97
2019-01-13T05:17:33.872Z,5.37
2019-01-13T05:20:00.704Z,5.00
2019-01-13T05:22:27.465Z,5.10
2019-01-13T05:24:54.230Z,5.47
2019-01-13T05:27:21.120Z,5.10
2019-01-13T05:29:47.868Z,5.17
2019-01-13T05:32:14.664Z,5.63
2019-01-13T05:34:41.402Z,6.13
2019-01-13T05:37:08.244Z,5.53
2019-01-13T05:39:35.085Z,6.07
2019-01-13T05:42:02.050Z,6.03
2019-01-13T05:44:29.048Z,6.37
2019-01-13T05:46:55.818Z,6.00
2019-01-13T05:49:22.665Z,5.83
2019-01-13T05:51:49.407Z,6.40
2019-01-13T05:54:16.509Z,6.13
2019-01-13T05:56:43.365Z,6.43
2019-01-13T05:59:10.134Z,6.47
2019-01-13T06:01:36.979Z,6.93
2019-01-13T06:04:03.856Z,7.03
2019-01-13T06:06:30.623Z,6.00
2019-01-13T06:08:57.376Z,6.23
2019-01-13T06:11:24.149Z,6.80
2019-01-13T06:13:51.005Z,6.57
2019-01-13T06:16:17.844Z,7.43
2019-01-13T06:18:44.628Z,7.80
2019-01-13T06:21:11.380Z,7.53
2019-01-13T06:23:38.476Z,7.47
2019-01-13T06:26:05.341Z,7.20
2019-01-13T06:28:32.089Z,6.97
2019-01-13T06:30:59.171Z,7.50
2019-01-13T06:33:25.949Z,7.63
2019-01-13T06:35:52.689Z,8.07
2019-01-13T06:38:19.534Z,8.10
2019-01-13T06:40:46.299Z,8.00
2019-01-13T06:43:13.322Z,7.60
2019-01-13T06:45:40.346Z,8.43
2019-01-13T06:48:07.197Z,8.70
2019-01-13T06:50:34.066Z,7.97
2019-01-13T06:53:00.943Z,7.13
2019-01-13T06:55:28.073Z,6.77
2019-01-13T06:57:54.977Z,7.47
2019-01-13T07:00:23.462Z,7.10
2019-01-13T07:02:50.417Z,7.87
2019-01-13T07:05:17.366Z,6.77
2019-01-13T07:07:44.314Z,5.40
2019-01-13T07:10:11.406Z,4.73
2019-01-13T07:12:38.841Z,6.80
2019-01-13T07:15:07.607Z,6.90
2019-01-13T07:17:34.764Z,7.40
2019-01-13T07:20:02.282Z,6.70
2019-01-13T07:22:29.531Z,7.33
2019-01-13T07:24:56.774Z,6.47
2019-01-13T07:27:23.770Z,6.80
2019-01-13T07:29:51.178Z,7.80
2019-01-13T07:32:18.233Z,7.80
2019-01-13T07:34:45.255Z,8.10
2019-01-13T07:37:12.026Z,7.43
2019-01-13T07:39:38.801Z,8.27
2019-01-13T07:42:06.052Z,7.87
2019-01-13T07:44:32.800Z,7.63
2019-01-13T07:46:59.681Z,9.40
2019-01-13T07:49:26.475Z,9.27
2019-01-13T07:51:53.382Z,9.27
2019-01-13T07:54:20.233Z,9.23
2019-01-13T07:56:47.267Z,8.73
2019-01-13T07:59:14.037Z,9.50
2019-01-13T08:01:41.316Z,9.73
2019-01-13T08:04:08.188Z,10.77
2019-01-13T08:06:35.256Z,10.30
2019-01-13T08:09:03.949Z,11.10
2019-01-13T08:11:31.100Z,10.50
2019-01-13T08:13:58.241Z,10.33
2019-01-13T08:16:25.281Z,10.60
2019-01-13T08:18:52.572Z,10.10
2019-01-13T08:21:19.693Z,10.40
2019-01-13T08:23:46.609Z,10.70
2019-01-13T08:26:13.801Z,12.00
2019-01-13T08:28:40.835Z,11.10
2019-01-13T08:31:07.756Z,11.37
2019-01-13T08:33:34.613Z,10.87
2019-01-13T08:36:01.556Z,9.57
2019-01-13T08:38:28.339Z,10.27
2019-01-13T08:40:55.076Z,10.37
2019-01-13T08:43:21.877Z,9.80
2019-01-13T08:45:50.398Z,9.03
2019-01-13T08:48:17.489Z,11.07
2019-01-13T08:50:44.461Z,10.50
2019-01-13T08:53:11.334Z,10.90
2019-01-13T08:55:38.350Z,11.20
2019-01-13T08:58:05.128Z,10.03
2019-01-13T09:00:33.096Z,11.37
2019-01-13T09:03:00.893Z,10.33
2019-01-13T09:05:27.870Z,9.30
2019-01-13T09:07:55.068Z,8.90
2019-01-13T09:10:22.264Z,10.30
2019-01-13T09:12:56.389Z,10.20
2019-01-13T09:15:20.017Z,10.33
2019-01-13T09:17:47.035Z,10.20
2019-01-13T09:20:16.645Z,10.70
2019-01-13T09:22:43.749Z,10.73
2019-01-13T09:25:10.977Z,10.97
2019-01-13T09:27:38.248Z,11.07
2019-01-13T09:30:08.493Z,10.27
2019-01-13T09:32:39.406Z,15.47
2019-01-13T09:35:04.774Z,11.40
2019-01-13T09:37:31.971Z,7.70
2019-01-13T09:39:59.078Z,10.03
2019-01-13T09:42:26.464Z,8.57
2019-01-13T09:44:53.558Z,10.10
2019-01-13T09:47:20.527Z,10.03
2019-01-13T09:49:50.052Z,7.57
2019-01-13T09:52:16.672Z,9.43
2019-01-13T09:54:43.852Z,9.67
2019-01-13T09:57:10.744Z,9.20
2019-01-13T09:59:38.134Z,10.40
2019-01-13T10:02:05.111Z,9.47
2019-01-13T10:04:32.306Z,8.37
2019-01-13T10:06:59.257Z,8.40
2019-01-13T10:09:26.004Z,8.37
2019-01-13T10:11:52.954Z,5.30
2019-01-13T10:14:19.954Z,5.77
2019-01-13T10:16:46.717Z,5.77
2019-01-13T10:19:13.670Z,5.23
2019-01-13T10:21:40.480Z,4.70
2019-01-13T10:24:07.230Z,7.73
2019-01-13T10:26:34.334Z,5.60
2019-01-13T10:29:01.226Z,4.13
2019-01-13T10:31:28.309Z,3.00
2019-01-13T10:33:55.269Z,3.37
2019-01-13T10:36:22.406Z,2.90
2019-01-13T10:38:49.170Z,2.30
2019-01-13T10:41:16.424Z,2.50
2019-01-13T10:43:43.540Z,2.60
2019-01-13T10:46:10.589Z,2.27
2019-01-13T10:48:37.461Z,2.00
2019-01-13T10:51:04.441Z,2.03
2019-01-13T10:53:31.334Z,1.77
2019-01-13T10:55:58.355Z,1.70
2019-01-13T10:58:25.672Z,1.63
2019-01-13T11:00:52.446Z,1.87
2019-01-13T11:03:19.408Z,1.90
2019-01-13T11:05:46.288Z,1.50
2019-01-13T11:08:13.324Z,1.80
2019-01-13T11:10:40.441Z,1.30
2019-01-13T11:13:07.237Z,1.60
2019-01-13T11:15:34.157Z,1.60
2019-01-13T11:18:01.116Z,1.60
2019-01-13T11:20:35.037Z,2.13
2019-01-13T11:23:02.061Z,1.60
2019-01-13T11:25:29.045Z,1.47
2019-01-13T11:27:56.056Z,8.20
2019-01-13T11:30:23.101Z,2.67
2019-01-13T11:32:50.094Z,4.10
2019-01-13T11:35:16.952Z,1.10
2019-01-13T11:37:44.465Z,1.30
2019-01-13T11:40:13.781Z,1.47
2019-01-13T11:42:41.429Z,1.20
2019-01-13T11:45:08.651Z,1.17
2019-01-13T11:47:35.502Z,1.30
2019-01-13T11:50:03.173Z,1.10
2019-01-13T11:52:30.074Z,1.30
2019-01-13T11:54:56.954Z,1.10
2019-01-13T11:57:23.941Z,1.10
2019-01-13T11:59:50.948Z,1.10
2019-01-13T12:02:17.820Z,1.03
2019-01-13T12:04:45.379Z,1.00
2019-01-13T12:07:12.248Z,1.10
2019-01-13T12:09:39.110Z,1.23
2019-01-13T12:12:06.146Z,0.53
2019-01-13T12:14:33.030Z,0.60
2019-01-13T12:17:00.043Z,0.90
2019-01-13T12:19:26.930Z,0.70
2019-01-13T12:21:53.793Z,0.77
2019-01-13T12:24:20.693Z,1.03
2019-01-13T12:26:48.077Z,1.00
2019-01-13T12:29:16.583Z,1.20
2019-01-13T12:31:43.426Z,0.90
2019-01-13T12:34:10.272Z,1.27
2019-01-13T12:36:37.245Z,1.00
2019-01-13T12:39:08.759Z,1.10
2019-01-13T12:41:35.526Z,1.40
2019-01-13T12:44:03.107Z,1.10
2019-01-13T12:46:30.101Z,1.00
2019-01-13T12:48:56.916Z,1.20
2019-01-13T12:51:23.916Z,1.30
2019-01-13T12:53:50.748Z,1.00
2019-01-13T12:56:18.013Z,1.00
2019-01-13T12:58:45.081Z,1.00
2019-01-13T13:01:12.540Z,0.97
2019-01-13T13:03:39.458Z,0.80
2019-01-13T13:06:06.479Z,0.60
2019-01-13T13:08:33.473Z,0.97
2019-01-13T13:11:00.716Z,1.00
2019-01-13T13:13:28.170Z,1.10
2019-01-13T13:15:55.189Z,0.80
2019-01-13T13:18:22.370Z,1.00
2019-01-13T13:20:51.765Z,1.03
2019-01-13T13:23:20.730Z,0.90
2019-01-13T13:25:48.058Z,0.90
2019-01-13T13:28:15.055Z,0.97
2019-01-13T13:33:10.893Z,0.60
2019-01-13T13:35:40.407Z,2.37
2019-01-13T13:38:07.415Z,1.43
2019-01-13T13:40:34.685Z,11.93
2019-01-13T13:43:01.692Z,7.93
2019-01-13T13:45:28.606Z,2.97
2019-01-13T13:47:55.677Z,3.13
2019-01-13T13:50:24.183Z,1.00
2019-01-13T13:52:51.762Z,11.47
2019-01-13T13:55:18.732Z,1.20
2019-01-13T13:57:45.951Z,1.47
2019-01-13T14:00:23.889Z,2.13
2019-01-13T14:02:51.302Z,2.17
2019-01-13T14:05:18.334Z,1.03
2019-01-13T14:07:45.223Z,2.00
2019-01-13T14:10:25.895Z,1.93
2019-01-13T14:12:53.928Z,1.10
2019-01-13T14:15:21.414Z,2.20
2019-01-13T14:17:48.554Z,1.10
2019-01-13T14:20:16.150Z,1.77
2019-01-13T14:22:43.380Z,1.40
2019-01-13T14:25:10.767Z,1.27
2019-01-13T14:27:37.516Z,1.30
2019-01-13T14:30:07.693Z,1.20
2019-01-13T14:32:34.548Z,1.80
2019-01-13T14:35:01.785Z,1.20
2019-01-13T14:37:28.649Z,1.23
2019-01-13T14:39:55.656Z,1.50
2019-01-13T14:42:22.773Z,9.87
2019-01-13T14:44:50.336Z,1.47
2019-01-13T14:47:17.816Z,4.50
2019-01-13T14:49:44.601Z,3.20
2019-01-13T14:52:12.217Z,1.97
2019-01-13T14:54:39.099Z,2.23
2019-01-13T14:57:06.108Z,1.83
2019-01-13T14:59:33.286Z,3.93
2019-01-13T15:02:00.187Z,1.97
2019-01-13T15:04:26.989Z,4.60
2019-01-13T15:06:54.110Z,3.33
2019-01-13T15:09:20.975Z,3.67
2019-01-13T15:11:47.961Z,2.77
2019-01-13T15:14:14.870Z,2.20
2019-01-13T15:16:42.108Z,2.23
2019-01-13T15:19:09.534Z,3.27
2019-01-13T15:21:36.492Z,1.83
2019-01-13T15:24:03.637Z,1.70
2019-01-13T15:26:30.487Z,1.70
2019-01-13T15:28:57.690Z,1.80
2019-01-13T15:31:24.502Z,2.57
2019-01-13T15:33:51.305Z,2.00
2019-01-13T15:36:18.334Z,1.53
2019-01-13T15:38:45.222Z,2.10
2019-01-13T15:41:13.867Z,1.50
2019-01-13T15:43:41.184Z,1.50
2019-01-13T15:46:08.062Z,1.40
2019-01-13T15:48:34.814Z,0.97
2019-01-13T15:51:01.730Z,1.43
2019-01-13T15:53:28.547Z,1.30
2019-01-13T15:55:55.729Z,1.20
2019-01-13T15:58:22.721Z,1.10
2019-01-13T16:00:49.468Z,0.93
2019-01-13T16:03:16.428Z,1.00
2019-01-13T16:05:43.296Z,0.80
2019-01-13T16:08:10.129Z,0.80
2019-01-13T16:10:37.352Z,7.03
2019-01-13T16:13:04.695Z,1.00
2019-01-13T16:15:34.440Z,1.27
2019-01-13T16:18:00.489Z,2.00
2019-01-13T16:20:35.313Z,1.40
2019-01-13T16:23:02.541Z,0.80
2019-01-13T16:25:29.397Z,1.00
2019-01-13T16:27:56.287Z,2.27
2019-01-13T16:30:24.034Z,1.00
2019-01-13T16:32:51.249Z,0.90
2019-01-13T16:35:18.445Z,1.00
2019-01-13T16:37:45.584Z,1.23
2019-01-13T16:40:14.449Z,0.90
2019-01-13T16:42:41.869Z,0.90
2019-01-13T16:45:09.676Z,0.90
2019-01-13T16:47:37.104Z,0.80
2019-01-13T16:50:05.815Z,0.90
2019-01-13T16:52:32.801Z,1.00
2019-01-13T16:54:59.561Z,1.07
2019-01-13T16:57:26.431Z,0.90
2019-01-13T16:59:53.676Z,1.33
2019-01-13T17:02:20.749Z,1.00
2019-01-13T17:04:47.660Z,0.80
2019-01-13T17:07:15.117Z,1.00
2019-01-13T17:09:42.119Z,1.90
2019-01-13T17:12:09.132Z,0.80
2019-01-13T17:14:36.440Z,0.83
2019-01-13T17:17:03.689Z,0.90
2019-01-13T17:19:30.685Z,0.90
2019-01-13T17:21:57.452Z,1.60
2019-01-13T17:24:24.509Z,0.90
2019-01-13T17:26:51.824Z,0.97
2019-01-13T17:29:18.613Z,1.10
2019-01-13T17:31:45.481Z,1.53
2019-01-13T17:34:12.299Z,1.10
2019-01-13T17:36:39.360Z,1.07
2019-01-13T17:39:07.622Z,1.27
2019-01-13T17:41:35.202Z,1.10
2019-01-13T17:44:02.417Z,1.10
2019-01-13T17:46:29.202Z,0.97
2019-01-13T17:48:56.071Z,1.10
2019-01-13T17:51:23.432Z,1.20
2019-01-13T17:53:50.288Z,1.10
2019-01-13T17:56:17.273Z,1.40
2019-01-13T17:58:44.653Z,1.23
2019-01-13T18:01:35.947Z,1.80
2019-01-13T18:04:02.967Z,1.07
2019-01-13T18:06:29.803Z,1.20
2019-01-13T18:08:56.686Z,0.97
2019-01-13T18:11:23.636Z,1.10
2019-01-13T18:13:50.990Z,1.00
2019-01-13T18:16:18.100Z,1.00
2019-01-13T18:18:45.098Z,0.90
2019-01-13T18:21:12.437Z,0.83
2019-01-13T18:23:39.513Z,1.20
2019-01-13T18:26:06.850Z,1.30
2019-01-13T18:28:33.981Z,1.40
2019-01-13T18:31:00.932Z,1.33
2019-01-13T18:33:27.979Z,1.30
2019-01-13T18:35:54.909Z,1.00
2019-01-13T18:38:21.977Z,1.40
2019-01-13T18:40:48.764Z,1.53
2019-01-13T18:43:15.793Z,1.97
2019-01-13T18:45:42.894Z,1.60
2019-01-13T18:48:09.941Z,2.53
2019-01-13T18:50:36.914Z,2.00
2019-01-13T18:53:06.124Z,3.10
2019-01-13T18:55:34.567Z,2.07
2019-01-13T18:58:01.862Z,3.50
2019-01-13T19:00:28.842Z,2.03
2019-01-13T19:02:55.766Z,1.30
2019-01-13T19:05:23.229Z,2.80
2019-01-13T19:07:50.454Z,1.53
2019-01-13T19:10:32.833Z,1.53
2019-01-13T19:13:17.251Z,1.60
2019-01-13T19:15:45.817Z,1.50
2019-01-13T19:18:12.834Z,1.20
2019-01-13T19:20:39.691Z,2.27
2019-01-13T19:23:09.533Z,1.90
2019-01-13T19:25:36.878Z,3.77
2019-01-13T19:28:04.062Z,1.40
2019-01-13T19:30:31.085Z,2.20
2019-01-13T19:32:58.414Z,1.40
2019-01-13T19:35:25.605Z,1.07
2019-01-13T19:37:52.557Z,1.10
2019-01-13T19:40:19.463Z,1.23
2019-01-13T19:42:46.590Z,1.10
2019-01-13T19:45:15.446Z,1.03
2019-01-13T19:47:42.611Z,0.90
2019-01-13T19:50:12.150Z,1.03
2019-01-13T19:52:40.473Z,1.00
2019-01-13T19:55:09.996Z,0.90
2019-01-13T19:57:37.122Z,1.27
2019-01-13T20:00:07.556Z,1.00
2019-01-13T20:02:34.494Z,1.27
2019-01-13T20:05:01.599Z,0.93
2019-01-13T20:07:30.600Z,1.70
2019-01-13T20:09:57.852Z,1.00
2019-01-13T20:12:24.867Z,1.27
2019-01-13T20:14:52.180Z,1.23
2019-01-13T20:17:19.194Z,1.10
2019-01-13T20:19:46.381Z,0.90
2019-01-13T20:22:13.760Z,0.90
2019-01-13T20:24:40.872Z,1.07
2019-01-13T20:27:07.910Z,1.50
2019-01-13T20:29:34.961Z,1.20
2019-01-13T20:32:02.469Z,1.20
2019-01-13T20:34:29.641Z,1.27
2019-01-13T20:36:56.406Z,0.90
2019-01-13T20:39:23.314Z,1.07
2019-01-13T20:41:50.307Z,0.90
2019-01-13T20:44:17.231Z,1.10
2019-01-13T20:46:44.605Z,1.00
2019-01-13T20:49:12.028Z,1.20
2019-01-13T20:51:39.099Z,1.23
2019-01-13T20:54:07.983Z,1.10
2019-01-13T20:56:35.249Z,1.23
2019-01-13T20:59:02.152Z,1.30
2019-01-13T21:01:29.145Z,1.10
2019-01-13T21:03:56.248Z,1.30
2019-01-13T21:06:23.292Z,1.07
2019-01-13T21:08:50.474Z,1.10
2019-01-13T21:11:17.713Z,1.23
2019-01-13T21:13:44.477Z,0.98
2019-01-13T21:16:11.458Z,1.23
2019-01-13T21:18:38.341Z,1.30
2019-01-13T21:21:05.463Z,1.20
2019-01-13T21:23:32.509Z,1.20
2019-01-13T21:25:59.591Z,1.27
2019-01-13T21:28:26.693Z,1.53
2019-01-13T21:30:54.133Z,1.23
2019-01-13T21:33:21.333Z,1.57
2019-01-13T21:35:48.594Z,1.23
2019-01-13T21:38:15.847Z,1.37
2019-01-13T21:40:42.721Z,1.33
2019-01-13T21:43:09.835Z,1.40
2019-01-13T21:45:36.704Z,1.30
2019-01-13T21:48:03.746Z,1.20
2019-01-13T21:50:31.025Z,1.03
2019-01-13T21:52:58.053Z,1.30
2019-01-13T21:55:25.082Z,1.27
2019-01-13T21:57:51.979Z,1.30
2019-01-13T22:00:20.446Z,1.40
2019-01-13T22:02:47.850Z,1.20
2019-01-13T22:05:14.929Z,1.50
2019-01-13T22:07:42.160Z,1.20
2019-01-13T22:10:11.746Z,1.50
2019-01-13T22:12:39.070Z,1.40
2019-01-13T22:15:07.750Z,1.40
2019-01-13T22:17:34.630Z,1.60
2019-01-13T22:20:02.012Z,1.33
2019-01-13T22:22:29.020Z,1.50
2019-01-13T22:24:56.358Z,1.40
2019-01-13T22:27:23.606Z,1.40
2019-01-13T22:29:50.909Z,1.57
2019-01-13T22:32:18.106Z,1.20
2019-01-13T22:34:45.250Z,1.00
2019-01-13T22:37:12.202Z,0.93
2019-01-13T22:39:39.326Z,1.00
2019-01-13T22:42:06.326Z,1.37
2019-01-13T22:44:33.747Z,0.97
2019-01-13T22:47:00.957Z,1.10
2019-01-13T22:49:27.888Z,1.10
2019-01-13T22:51:54.993Z,0.90
2019-01-13T22:54:21.971Z,1.20
2019-01-13T22:56:48.849Z,0.87
2019-01-13T22:59:15.866Z,1.00
2019-01-13T23:01:44.477Z,1.10
2019-01-13T23:04:15.609Z,1.10
2019-01-13T23:06:42.683Z,1.30
2019-01-13T23:09:11.030Z,1.10
2019-01-13T23:11:37.856Z,1.07
2019-01-13T23:14:06.783Z,1.13
2019-01-13T23:16:33.881Z,1.10
2019-01-13T23:19:00.645Z,1.10
2019-01-13T23:21:27.421Z,1.10
2019-01-13T23:23:54.289Z,1.20
2019-01-13T23:26:21.254Z,1.30
2019-01-13T23:28:48.539Z,1.00
2019-01-13T23:31:15.807Z,1.13
2019-01-13T23:33:42.569Z,1.20
2019-01-13T23:36:09.817Z,1.30
2019-01-13T23:38:36.688Z,1.30
2019-01-13T23:41:03.701Z,1.43
2019-01-13T23:43:30.846Z,1.20
2019-01-13T23:45:57.877Z,1.43
2019-01-13T23:48:24.858Z,1.23
2019-01-13T23:50:51.933Z,1.10
2019-01-13T23:53:18.715Z,1.30
2019-01-13T23:55:45.739Z,1.40
2019-01-13T23:58:12.753Z,1.20
